createdAt,value
2022-12-07T00:01:46.311Z,2.28
2022-12-07T00:04:16.476Z,2.15
2022-12-07T00:06:46.336Z,1.05
2022-12-07T00:09:22.413Z,0.90
2022-12-07T00:14:20.747Z,3.47
2022-12-07T00:16:50.924Z,1.55
2022-12-07T00:19:18.984Z,1.15
2022-12-07T00:21:46.660Z,1.15
2022-12-07T00:24:14.282Z,1.83
2022-12-07T00:26:43.350Z,1.13
2022-12-07T00:29:17.520Z,1.90
2022-12-07T00:31:56.773Z,1.42
2022-12-07T00:34:50.219Z,1.00
2022-12-07T00:37:22.882Z,1.10
2022-12-07T00:39:57.988Z,0.77
2022-12-07T00:42:28.290Z,1.23
2022-12-07T00:44:57.154Z,0.65
2022-12-07T00:47:29.864Z,1.25
2022-12-07T00:49:57.949Z,1.08
2022-12-07T00:52:25.835Z,1.23
2022-12-07T00:55:04.075Z,1.27
2022-12-07T00:57:38.019Z,1.30
2022-12-07T01:00:06.574Z,1.13
2022-12-07T01:02:35.357Z,1.13
2022-12-07T01:05:08.169Z,1.13
2022-12-07T01:07:39.205Z,1.33
2022-12-07T01:10:10.733Z,0.80
2022-12-07T01:12:38.697Z,0.75
2022-12-07T01:15:07.221Z,0.73
2022-12-07T01:17:35.229Z,1.30
2022-12-07T01:20:05.016Z,1.67
2022-12-07T01:22:32.885Z,1.77
2022-12-07T01:25:00.690Z,0.90
2022-12-07T01:27:28.312Z,1.45
2022-12-07T01:29:55.925Z,0.32
2022-12-07T01:32:23.729Z,0.82
2022-12-07T01:34:54.391Z,0.75
2022-12-07T01:37:22.589Z,0.25
2022-12-07T01:39:51.393Z,0.77
2022-12-07T01:42:19.979Z,0.88
2022-12-07T01:45:27.602Z,1.40
2022-12-07T01:47:57.648Z,0.55
2022-12-07T01:50:29.084Z,0.85
2022-12-07T01:52:59.711Z,0.85
2022-12-07T01:55:28.029Z,0.55
2022-12-07T01:57:57.339Z,1.17
2022-12-07T02:00:28.127Z,0.85
2022-12-07T02:03:05.949Z,0.90
2022-12-07T02:05:36.358Z,0.80
2022-12-07T02:08:05.129Z,0.88
2022-12-07T02:10:33.142Z,1.00
2022-12-07T02:13:29.090Z,1.42
2022-12-07T02:15:56.723Z,1.10
2022-12-07T02:18:41.707Z,0.88
2022-12-07T02:21:52.397Z,1.15
2022-12-07T02:24:40.804Z,1.27
2022-12-07T02:27:14.205Z,1.33
2022-12-07T02:30:07.599Z,1.20
2022-12-07T02:32:49.883Z,1.70
2022-12-07T02:35:27.528Z,1.63
2022-12-07T02:38:00.939Z,1.10
2022-12-07T02:40:49.247Z,1.30
2022-12-07T02:43:45.770Z,1.60
2022-12-07T02:46:18.420Z,1.42
2022-12-07T02:48:48.097Z,0.95
2022-12-07T02:51:15.788Z,1.80
2022-12-07T02:53:45.410Z,1.02
2022-12-07T02:56:41.275Z,0.85
2022-12-07T02:59:26.891Z,2.27
2022-12-07T03:02:15.319Z,1.50
2022-12-07T03:05:07.365Z,0.90
2022-12-07T03:08:08.355Z,1.08
2022-12-07T03:10:54.731Z,1.67
2022-12-07T03:16:02.690Z,1.75
2022-12-07T03:18:35.336Z,0.95
2022-12-07T03:21:07.861Z,2.55
2022-12-07T03:23:38.301Z,2.13
2022-12-07T03:26:09.712Z,1.60
2022-12-07T03:28:45.143Z,1.30
2022-12-07T03:31:22.762Z,0.77
2022-12-07T03:34:02.381Z,0.82
2022-12-07T03:36:42.175Z,0.82
2022-12-07T03:39:37.156Z,0.80
2022-12-07T03:42:08.312Z,1.42
2022-12-07T03:44:37.284Z,1.60
2022-12-07T03:47:17.213Z,1.02
2022-12-07T03:50:02.264Z,1.38
2022-12-07T03:52:39.940Z,1.25
2022-12-07T03:55:39.563Z,0.90
2022-12-07T03:58:16.701Z,0.47
2022-12-07T04:00:45.286Z,0.60
2022-12-07T04:03:13.023Z,0.85
2022-12-07T04:05:41.532Z,0.63
2022-12-07T04:08:09.282Z,0.60
2022-12-07T04:10:36.971Z,0.73
2022-12-07T04:13:04.669Z,0.52
2022-12-07T04:15:32.449Z,0.45
2022-12-07T04:18:00.226Z,0.73
2022-12-07T04:20:27.901Z,2.05
2022-12-07T04:22:55.673Z,0.50
2022-12-07T04:25:23.376Z,0.40
2022-12-07T04:27:51.061Z,0.40
2022-12-07T04:30:20.476Z,1.38
2022-12-07T04:32:48.178Z,1.00
2022-12-07T04:35:15.828Z,0.40
2022-12-07T04:37:43.569Z,0.68
2022-12-07T04:40:15.414Z,0.68
2022-12-07T04:42:43.212Z,2.25
2022-12-07T04:45:11.043Z,0.75
2022-12-07T04:47:38.700Z,10.30
2022-12-07T04:50:07.184Z,3.03
2022-12-07T04:52:34.987Z,0.88
2022-12-07T04:55:02.863Z,2.10
2022-12-07T04:57:30.673Z,1.02
2022-12-07T04:59:58.311Z,0.80
2022-12-07T05:02:25.925Z,1.27
2022-12-07T05:04:53.646Z,0.60
2022-12-07T05:07:21.455Z,1.00
2022-12-07T05:09:50.911Z,0.52
2022-12-07T05:12:20.757Z,1.15
2022-12-07T05:14:50.371Z,0.90
2022-12-07T05:17:18.105Z,2.70
2022-12-07T05:19:45.719Z,1.58
2022-12-07T05:22:14.526Z,1.85
2022-12-07T05:24:42.375Z,1.85
2022-12-07T05:27:15.529Z,1.40
2022-12-07T05:29:45.677Z,1.38
2022-12-07T05:32:20.655Z,1.45
2022-12-07T05:34:48.548Z,1.75
2022-12-07T05:37:22.655Z,1.52
2022-12-07T05:39:52.948Z,1.58
2022-12-07T05:42:20.888Z,0.93
2022-12-07T05:44:51.199Z,0.50
2022-12-07T05:47:24.063Z,0.63
2022-12-07T05:49:52.044Z,1.30
2022-12-07T05:52:19.753Z,0.98
2022-12-07T05:54:47.420Z,1.15
2022-12-07T05:57:15.365Z,1.17
2022-12-07T05:59:43.401Z,1.33
2022-12-07T06:02:16.403Z,1.23
2022-12-07T06:04:46.774Z,1.75
2022-12-07T06:07:16.228Z,1.38
2022-12-07T06:09:44.021Z,1.00
2022-12-07T06:12:32.421Z,1.40
2022-12-07T06:15:00.096Z,12.38
2022-12-07T06:17:27.891Z,5.38
2022-12-07T06:19:58.506Z,4.10
2022-12-07T06:22:26.184Z,3.88
2022-12-07T06:24:54.676Z,1.60
2022-12-07T06:27:22.394Z,1.50
2022-12-07T06:29:49.994Z,1.10
2022-12-07T06:32:17.781Z,0.85
2022-12-07T06:34:47.664Z,0.75
2022-12-07T06:37:15.385Z,0.90
2022-12-07T06:39:43.025Z,1.23
2022-12-07T06:42:12.852Z,1.10
2022-12-07T06:44:42.562Z,1.38
2022-12-07T06:47:39.709Z,0.85
2022-12-07T06:49:58.172Z,1.67
2022-12-07T06:52:25.838Z,2.85
2022-12-07T06:54:53.447Z,4.72
2022-12-07T06:57:21.446Z,3.08
2022-12-07T06:59:49.252Z,3.90
2022-12-07T07:02:17.143Z,1.52
2022-12-07T07:04:44.890Z,1.50
2022-12-07T07:07:12.536Z,1.00
2022-12-07T07:09:40.321Z,2.08
2022-12-07T07:12:08.046Z,1.92
2022-12-07T07:14:35.693Z,1.77
2022-12-07T07:17:03.494Z,1.50
2022-12-07T07:19:31.158Z,1.30
2022-12-07T07:21:58.785Z,2.08
2022-12-07T07:24:26.471Z,4.05
2022-12-07T07:26:54.031Z,5.35
2022-12-07T07:29:21.759Z,2.60
2022-12-07T07:31:49.350Z,1.95
2022-12-07T07:34:17.081Z,1.85
2022-12-07T07:36:47.669Z,1.67
2022-12-07T07:39:15.519Z,5.00
2022-12-07T07:41:43.165Z,3.30
2022-12-07T07:44:15.003Z,1.95
2022-12-07T07:46:42.606Z,2.90
2022-12-07T07:49:11.961Z,2.55
2022-12-07T07:51:39.760Z,2.08
2022-12-07T07:54:09.059Z,4.18
2022-12-07T07:56:36.760Z,2.95
2022-12-07T07:59:04.451Z,2.95
2022-12-07T08:01:32.146Z,4.43
2022-12-07T08:04:00.028Z,2.78
2022-12-07T08:06:31.970Z,2.17
2022-12-07T08:09:00.448Z,2.75
2022-12-07T08:11:28.129Z,4.15
2022-12-07T08:13:55.841Z,3.08
2022-12-07T08:16:23.724Z,2.72
2022-12-07T08:18:51.497Z,1.88
2022-12-07T08:21:19.336Z,3.85
2022-12-07T08:23:47.045Z,4.10
2022-12-07T08:26:16.145Z,4.47
2022-12-07T08:28:45.739Z,2.65
2022-12-07T08:31:17.566Z,3.58
2022-12-07T08:33:49.696Z,1.95
2022-12-07T08:36:20.420Z,2.58
2022-12-07T08:39:22.406Z,3.60
2022-12-07T08:41:36.140Z,1.65
2022-12-07T08:44:04.387Z,1.88
2022-12-07T08:46:43.690Z,2.70
2022-12-07T08:49:22.372Z,11.75
2022-12-07T08:51:50.510Z,4.78
2022-12-07T08:54:19.518Z,6.63
2022-12-07T08:56:49.473Z,3.20
2022-12-07T08:59:21.746Z,3.67
2022-12-07T09:01:49.434Z,3.47
2022-12-07T09:04:17.206Z,3.15
2022-12-07T09:06:44.950Z,2.55
2022-12-07T09:09:14.567Z,2.35
2022-12-07T09:11:42.700Z,3.15
2022-12-07T09:14:10.286Z,2.42
2022-12-07T09:16:37.911Z,2.75
2022-12-07T09:19:05.581Z,2.30
2022-12-07T09:21:33.135Z,2.38
2022-12-07T09:24:00.747Z,2.67
2022-12-07T09:26:28.338Z,3.17
2022-12-07T09:28:55.921Z,2.72
2022-12-07T09:31:25.099Z,2.97
2022-12-07T09:34:01.010Z,2.67
2022-12-07T09:36:30.224Z,2.28
2022-12-07T09:38:57.927Z,2.90
2022-12-07T09:41:27.613Z,2.42
2022-12-07T09:44:05.038Z,2.50
2022-12-07T09:46:37.804Z,3.05
2022-12-07T09:49:06.528Z,2.95
2022-12-07T09:51:34.202Z,2.38
2022-12-07T09:54:02.764Z,2.97
2022-12-07T09:56:34.599Z,2.85
2022-12-07T09:59:04.415Z,2.13
2022-12-07T10:01:34.482Z,2.47
2022-12-07T10:04:19.109Z,2.40
2022-12-07T10:06:48.944Z,1.95
2022-12-07T10:09:19.952Z,2.60
2022-12-07T10:12:10.663Z,2.05
2022-12-07T10:15:08.583Z,2.30
2022-12-07T10:17:49.618Z,2.05
2022-12-07T10:20:27.981Z,2.30
2022-12-07T10:23:02.110Z,2.13
2022-12-07T10:25:37.946Z,2.13
2022-12-07T10:28:08.521Z,2.63
2022-12-07T10:30:58.074Z,2.35
2022-12-07T10:33:35.890Z,2.38
2022-12-07T10:36:25.956Z,1.73
2022-12-07T10:39:15.063Z,1.92
2022-12-07T10:41:57.937Z,3.60
2022-12-07T10:44:31.631Z,2.47
2022-12-07T10:47:10.015Z,1.70
2022-12-07T10:50:15.129Z,1.92
2022-12-07T10:52:59.802Z,3.25
2022-12-07T10:55:54.832Z,2.88
2022-12-07T10:58:44.192Z,1.85
2022-12-07T11:01:30.206Z,2.38
2022-12-07T11:04:27.528Z,3.60
2022-12-07T11:07:20.115Z,3.63
2022-12-07T11:10:10.301Z,1.85
2022-12-07T11:13:00.509Z,2.63
2022-12-07T11:15:41.332Z,1.80
2022-12-07T11:18:27.668Z,2.30
2022-12-07T11:24:05.702Z,2.03
2022-12-07T11:26:52.105Z,1.88
2022-12-07T11:29:44.301Z,1.75
2022-12-07T11:32:38.914Z,1.33
2022-12-07T11:35:20.686Z,1.15
2022-12-07T11:37:54.477Z,1.65
2022-12-07T11:40:33.306Z,1.65
2022-12-07T11:43:25.008Z,1.42
2022-12-07T11:46:07.035Z,1.40
2022-12-07T11:48:47.459Z,1.52
2022-12-07T11:51:22.206Z,1.20
2022-12-07T11:54:18.970Z,1.25
2022-12-07T11:56:51.055Z,1.33
2022-12-07T11:59:40.786Z,1.30
2022-12-07T12:02:29.099Z,0.95
2022-12-07T12:05:13.520Z,1.02
2022-12-07T12:11:03.579Z,0.95
2022-12-07T12:17:04.833Z,1.23
2022-12-07T12:19:43.623Z,1.13
2022-12-07T12:22:21.996Z,1.02
2022-12-07T12:24:54.111Z,1.23
2022-12-07T12:27:32.970Z,1.45
2022-12-07T12:30:03.999Z,1.20
2022-12-07T12:32:42.184Z,1.30
2022-12-07T12:35:31.805Z,1.40
2022-12-07T12:38:18.143Z,1.30
2022-12-07T12:43:53.612Z,2.08
2022-12-07T12:46:58.514Z,1.77
2022-12-07T12:49:33.392Z,1.50
2022-12-07T12:52:04.275Z,1.30
2022-12-07T12:54:32.540Z,1.60
2022-12-07T12:57:27.838Z,1.55
2022-12-07T12:59:57.140Z,1.85
2022-12-07T13:02:38.374Z,1.50
2022-12-07T13:05:15.577Z,1.60
2022-12-07T13:08:01.393Z,1.83
2022-12-07T13:10:31.703Z,1.85
2022-12-07T13:13:32.881Z,1.33
2022-12-07T13:16:09.592Z,2.00
2022-12-07T13:18:38.687Z,2.42
2022-12-07T13:21:09.276Z,1.73
2022-12-07T13:23:38.020Z,1.90
2022-12-07T13:26:36.276Z,1.83
2022-12-07T13:29:22.773Z,1.83
2022-12-07T13:31:55.507Z,2.35
2022-12-07T13:34:37.673Z,2.17
2022-12-07T13:37:22.702Z,2.03
2022-12-07T13:39:53.123Z,3.08
2022-12-07T13:42:25.921Z,3.35
2022-12-07T13:44:56.150Z,3.45
2022-12-07T13:47:45.697Z,2.65
2022-12-07T13:50:32.199Z,3.47
2022-12-07T13:55:31.895Z,3.33
2022-12-07T13:58:00.692Z,2.83
2022-12-07T14:00:30.645Z,2.80
2022-12-07T14:03:05.436Z,2.17
2022-12-07T14:05:37.867Z,2.42
2022-12-07T14:08:11.464Z,2.90
2022-12-07T14:10:42.574Z,2.28
2022-12-07T14:13:41.987Z,2.20
2022-12-07T14:16:33.656Z,4.72
2022-12-07T14:19:26.037Z,4.80
2022-12-07T14:22:09.208Z,5.60
2022-12-07T14:24:44.230Z,6.38
2022-12-07T14:27:24.043Z,6.65
2022-12-07T14:29:51.585Z,4.70
2022-12-07T14:32:29.283Z,5.32
2022-12-07T14:35:13.023Z,4.57
2022-12-07T14:37:42.407Z,5.45
2022-12-07T14:40:19.589Z,3.97
2022-12-07T14:42:54.083Z,3.28
2022-12-07T14:45:23.865Z,2.65
2022-12-07T14:53:37.932Z,1.98
2022-12-07T14:56:09.270Z,2.42
2022-12-07T14:58:37.111Z,2.05
2022-12-07T15:01:05.140Z,1.80
2022-12-07T15:03:35.864Z,1.98
2022-12-07T15:06:05.549Z,1.33
2022-12-07T15:08:33.972Z,19.77
2022-12-07T15:11:01.544Z,8.05
2022-12-07T15:13:47.382Z,5.53
2022-12-07T15:16:20.625Z,3.63
2022-12-07T15:19:04.855Z,2.85
2022-12-07T15:21:36.028Z,5.82
2022-12-07T15:24:07.087Z,4.70
2022-12-07T15:26:34.747Z,3.65
2022-12-07T15:29:02.339Z,5.63
2022-12-07T15:34:21.705Z,5.07
2022-12-07T15:36:49.283Z,5.80
2022-12-07T15:39:16.970Z,5.35
2022-12-07T15:41:44.692Z,5.28
2022-12-07T15:44:34.818Z,3.55
2022-12-07T15:47:02.461Z,3.55
2022-12-07T15:49:30.347Z,3.25
2022-12-07T15:52:01.311Z,4.65
2022-12-07T15:54:30.456Z,4.32
2022-12-07T15:57:03.111Z,5.57
2022-12-07T15:59:32.526Z,4.50
2022-12-07T16:02:04.842Z,7.60
2022-12-07T16:04:35.676Z,6.50
2022-12-07T16:07:04.517Z,4.75
2022-12-07T16:09:45.490Z,3.83
2022-12-07T16:12:55.199Z,5.03
2022-12-07T16:15:39.915Z,4.55
2022-12-07T16:18:12.142Z,5.47
2022-12-07T16:20:40.649Z,9.90
2022-12-07T16:23:11.340Z,8.32
2022-12-07T16:25:39.114Z,7.07
2022-12-07T16:28:06.797Z,9.00
2022-12-07T16:30:36.012Z,7.13
2022-12-07T16:33:06.271Z,7.60
2022-12-07T16:35:34.875Z,8.82
2022-12-07T16:38:02.626Z,7.95
2022-12-07T16:40:30.386Z,7.32
2022-12-07T16:42:58.392Z,5.55
2022-12-07T16:45:26.462Z,7.07
2022-12-07T16:47:54.032Z,4.18
2022-12-07T16:50:21.749Z,4.75
2022-12-07T16:52:49.632Z,4.93
2022-12-07T16:55:17.388Z,4.82
2022-12-07T16:57:45.064Z,4.35
2022-12-07T17:00:13.578Z,4.03
2022-12-07T17:02:41.834Z,3.60
2022-12-07T17:05:09.590Z,3.58
2022-12-07T17:07:37.223Z,4.50
2022-12-07T17:10:08.277Z,5.80
2022-12-07T17:12:36.042Z,6.03
2022-12-07T17:15:19.572Z,5.07
2022-12-07T17:17:53.372Z,4.80
2022-12-07T17:20:24.229Z,5.38
2022-12-07T17:22:51.977Z,5.38
2022-12-07T17:25:24.270Z,4.45
2022-12-07T17:27:56.198Z,5.88
2022-12-07T17:30:25.110Z,6.32
2022-12-07T17:33:23.533Z,7.95
2022-12-07T17:36:05.850Z,6.17
2022-12-07T17:39:51.971Z,7.07
2022-12-07T17:42:55.804Z,2.30
2022-12-07T17:46:00.171Z,3.97
2022-12-07T17:49:06.059Z,4.53
2022-12-07T17:51:53.337Z,5.85
2022-12-07T17:54:45.918Z,6.55
2022-12-07T17:57:13.632Z,8.10
2022-12-07T17:59:41.661Z,8.23
2022-12-07T18:02:10.148Z,7.38
2022-12-07T18:04:43.149Z,6.50
2022-12-07T18:07:11.161Z,7.10
2022-12-07T18:13:22.280Z,8.43
2022-12-07T18:15:57.270Z,1.92
2022-12-07T18:18:27.831Z,2.70
2022-12-07T18:20:55.870Z,3.17
2022-12-07T18:23:23.632Z,2.88
2022-12-07T18:25:51.713Z,3.38
2022-12-07T18:28:20.838Z,3.58
2022-12-07T18:31:14.405Z,2.80
2022-12-07T18:34:03.020Z,2.05
2022-12-07T18:36:59.913Z,2.47
2022-12-07T18:39:57.718Z,1.63
2022-12-07T18:45:56.265Z,2.20
2022-12-07T18:48:24.634Z,2.22
2022-12-07T18:51:05.800Z,1.90
2022-12-07T18:53:50.852Z,2.03
2022-12-07T18:56:24.150Z,1.73
2022-12-07T18:59:29.257Z,2.75
2022-12-07T19:02:09.175Z,2.70
2022-12-07T19:04:39.400Z,2.65
2022-12-07T19:07:30.193Z,2.85
2022-12-07T19:09:58.030Z,2.00
2022-12-07T19:12:31.560Z,7.47
2022-12-07T19:14:59.261Z,3.42
2022-12-07T19:17:33.159Z,3.13
2022-12-07T19:20:01.909Z,2.72
2022-12-07T19:22:29.901Z,4.25
2022-12-07T19:24:58.216Z,3.65
2022-12-07T19:27:28.543Z,2.72
2022-12-07T19:30:02.650Z,3.55
2022-12-07T19:32:35.746Z,3.63
2022-12-07T19:35:08.549Z,2.90
2022-12-07T19:37:36.370Z,3.63
2022-12-07T19:40:06.820Z,3.13
2022-12-07T19:42:44.189Z,3.38
2022-12-07T19:45:36.307Z,2.92
2022-12-07T19:48:12.568Z,2.45
2022-12-07T19:50:48.583Z,2.00
2022-12-07T19:56:01.042Z,1.98
2022-12-07T19:58:40.538Z,1.20
2022-12-07T20:01:35.461Z,1.75
2022-12-07T20:04:45.664Z,1.60
2022-12-07T20:07:33.810Z,1.77
2022-12-07T20:10:27.231Z,1.08
2022-12-07T20:13:27.093Z,2.05
2022-12-07T20:16:30.629Z,1.88
2022-12-07T20:19:01.833Z,1.23
2022-12-07T20:21:45.147Z,1.73
2022-12-07T20:24:38.569Z,1.58
2022-12-07T20:27:39.212Z,1.42
2022-12-07T20:30:15.973Z,1.85
2022-12-07T20:32:43.826Z,1.55
2022-12-07T20:35:28.055Z,2.33
2022-12-07T20:38:27.722Z,1.48
2022-12-07T20:41:31.043Z,2.17
2022-12-07T20:44:42.584Z,2.58
2022-12-07T20:47:38.478Z,1.45
2022-12-07T20:50:22.125Z,2.03
2022-12-07T20:53:21.462Z,1.77
2022-12-07T20:55:56.544Z,3.25
2022-12-07T20:58:28.588Z,2.13
2022-12-07T21:01:06.465Z,1.63
2022-12-07T21:03:34.189Z,1.40
2022-12-07T21:06:03.252Z,0.90
2022-12-07T21:08:31.343Z,1.52
2022-12-07T21:11:00.659Z,1.45
2022-12-07T21:13:31.107Z,2.03
2022-12-07T21:15:59.608Z,0.60
2022-12-07T21:18:29.934Z,1.60
2022-12-07T21:21:03.098Z,1.17
2022-12-07T21:23:35.842Z,2.20
2022-12-07T21:26:15.071Z,2.15
2022-12-07T21:28:42.800Z,2.22
2022-12-07T21:31:13.307Z,2.22
2022-12-07T21:33:44.219Z,1.55
2022-12-07T21:36:23.526Z,1.52
2022-12-07T21:38:53.754Z,2.28
2022-12-07T21:41:24.476Z,0.90
2022-12-07T21:43:52.882Z,1.50
2022-12-07T21:46:22.000Z,1.85
2022-12-07T21:48:55.095Z,1.88
2022-12-07T21:52:25.037Z,1.23
2022-12-07T21:55:16.927Z,2.03
2022-12-07T21:58:08.649Z,1.42
2022-12-07T22:00:56.119Z,2.17
2022-12-07T22:03:34.132Z,2.03
2022-12-07T22:06:31.246Z,2.08
2022-12-07T22:09:53.431Z,1.42
2022-12-07T22:12:43.540Z,1.48
2022-12-07T22:15:51.738Z,1.00
2022-12-07T22:18:44.479Z,2.90
2022-12-07T22:21:26.055Z,2.10
2022-12-07T22:24:38.466Z,2.22
2022-12-07T22:27:25.473Z,1.83
2022-12-07T22:30:06.910Z,1.92
2022-12-07T22:33:10.394Z,1.30
2022-12-07T22:36:31.911Z,1.63
2022-12-07T22:39:14.990Z,1.15
2022-12-07T22:41:51.455Z,1.58
2022-12-07T22:44:42.325Z,1.30
2022-12-07T22:47:31.538Z,0.82
2022-12-07T22:50:12.431Z,0.80
2022-12-07T22:52:47.744Z,0.60
2022-12-07T22:55:38.101Z,0.95
2022-12-07T22:58:18.561Z,0.70
2022-12-07T23:03:52.751Z,0.68
2022-12-07T23:06:33.531Z,2.40
2022-12-07T23:09:16.903Z,0.77
2022-12-07T23:12:03.208Z,0.52
2022-12-07T23:14:34.070Z,1.08
2022-12-07T23:17:03.108Z,0.60
2022-12-07T23:19:31.129Z,0.60
2022-12-07T23:22:00.826Z,1.08
2022-12-07T23:24:29.023Z,0.57
2022-12-07T23:26:56.723Z,0.63
2022-12-07T23:29:24.537Z,0.70
2022-12-07T23:31:52.300Z,0.40
2022-12-07T23:34:24.821Z,0.85
2022-12-07T23:36:52.565Z,1.10
2022-12-07T23:39:20.243Z,1.25
2022-12-07T23:41:47.869Z,1.27
2022-12-07T23:44:15.658Z,1.02
2022-12-07T23:46:43.554Z,1.80
2022-12-07T23:49:12.981Z,1.25
2022-12-07T23:51:41.448Z,0.90
2022-12-07T23:54:11.780Z,1.67
2022-12-07T23:56:39.534Z,1.15
2022-12-07T23:59:07.419Z,0.80
